createdAt,value
2022-11-30T00:01:37.465Z,5.22
2022-11-30T00:04:05.819Z,11.57
2022-11-30T00:06:34.461Z,5.82
2022-11-30T00:09:02.643Z,5.80
2022-11-30T00:11:30.790Z,4.03
2022-11-30T00:14:01.924Z,5.13
2022-11-30T00:16:30.137Z,2.60
2022-11-30T00:18:58.255Z,5.43
2022-11-30T00:21:26.607Z,6.57
2022-11-30T00:23:54.694Z,5.55
2022-11-30T00:26:23.226Z,4.70
2022-11-30T00:28:51.520Z,5.60
2022-11-30T00:31:21.060Z,4.03
2022-11-30T00:33:50.307Z,3.55
2022-11-30T00:36:20.195Z,6.05
2022-11-30T00:38:49.182Z,3.15
2022-11-30T00:41:18.120Z,2.38
2022-11-30T00:43:47.256Z,2.60
2022-11-30T00:46:16.107Z,4.97
2022-11-30T00:48:45.758Z,2.55
2022-11-30T00:51:14.080Z,2.63
2022-11-30T00:53:42.800Z,3.00
2022-11-30T00:56:10.895Z,2.60
2022-11-30T00:58:39.025Z,2.35
2022-11-30T01:01:07.828Z,4.07
2022-11-30T01:03:36.220Z,2.78
2022-11-30T01:06:06.984Z,2.88
2022-11-30T01:08:35.886Z,3.08
2022-11-30T01:11:09.790Z,3.78
2022-11-30T01:13:37.935Z,2.50
2022-11-30T01:16:10.782Z,8.00
2022-11-30T01:18:39.458Z,3.13
2022-11-30T01:21:10.075Z,3.45
2022-11-30T01:23:38.290Z,2.85
2022-11-30T01:26:06.386Z,2.63
2022-11-30T01:28:34.600Z,2.67
2022-11-30T01:31:04.855Z,2.05
2022-11-30T01:33:32.994Z,3.97
2022-11-30T01:36:02.791Z,2.42
2022-11-30T01:38:37.912Z,2.08
2022-11-30T01:41:07.960Z,2.50
2022-11-30T01:43:44.335Z,3.80
2022-11-30T01:46:24.517Z,3.33
2022-11-30T01:48:59.381Z,2.30
2022-11-30T01:51:29.982Z,2.67
2022-11-30T01:54:01.289Z,2.42
2022-11-30T01:56:29.669Z,3.78
2022-11-30T01:58:57.798Z,4.20
2022-11-30T02:01:26.903Z,5.30
2022-11-30T02:03:58.902Z,3.15
2022-11-30T02:06:27.201Z,1.70
2022-11-30T02:08:56.062Z,1.95
2022-11-30T02:11:28.559Z,3.20
2022-11-30T02:14:19.093Z,3.38
2022-11-30T02:16:55.558Z,3.13
2022-11-30T02:19:51.516Z,2.30
2022-11-30T02:22:28.209Z,4.60
2022-11-30T02:25:08.297Z,6.00
2022-11-30T02:27:52.537Z,6.90
2022-11-30T02:30:24.249Z,7.80
2022-11-30T02:32:57.312Z,6.05
2022-11-30T02:35:28.693Z,6.10
2022-11-30T02:37:59.074Z,5.28
2022-11-30T02:40:27.296Z,5.68
2022-11-30T02:42:56.812Z,5.75
2022-11-30T02:45:32.382Z,7.25
2022-11-30T02:48:08.809Z,4.28
2022-11-30T02:50:42.591Z,4.85
2022-11-30T02:53:11.268Z,5.53
2022-11-30T02:55:39.381Z,6.82
2022-11-30T02:58:07.800Z,4.53
2022-11-30T03:00:37.239Z,4.60
2022-11-30T03:03:05.309Z,4.20
2022-11-30T03:05:33.529Z,4.32
2022-11-30T03:08:01.678Z,4.60
2022-11-30T03:10:29.806Z,6.07
2022-11-30T03:12:59.130Z,2.97
2022-11-30T03:15:28.037Z,6.18
2022-11-30T03:17:57.377Z,4.32
2022-11-30T03:20:25.586Z,6.97
2022-11-30T03:22:53.620Z,2.85
2022-11-30T03:25:21.686Z,2.03
2022-11-30T03:27:49.690Z,9.57
2022-11-30T03:30:17.968Z,4.03
2022-11-30T03:32:45.960Z,2.95
2022-11-30T03:35:15.784Z,2.60
2022-11-30T03:37:43.790Z,3.65
2022-11-30T03:40:12.718Z,5.18
2022-11-30T03:42:40.953Z,4.00
2022-11-30T03:45:09.468Z,3.80
2022-11-30T03:47:38.491Z,6.85
2022-11-30T03:50:07.943Z,7.38
2022-11-30T03:52:37.266Z,4.22
2022-11-30T03:55:06.148Z,2.83
2022-11-30T03:57:34.135Z,2.45
2022-11-30T04:00:02.212Z,2.72
2022-11-30T04:02:44.483Z,2.78
2022-11-30T04:05:13.511Z,3.67
2022-11-30T04:07:42.992Z,3.63
2022-11-30T04:10:12.294Z,3.00
2022-11-30T04:12:40.289Z,3.85
2022-11-30T04:15:09.625Z,3.70
2022-11-30T04:17:37.643Z,3.55
2022-11-30T04:20:07.050Z,3.53
2022-11-30T04:22:37.795Z,4.80
2022-11-30T04:25:08.316Z,3.38
2022-11-30T04:27:36.275Z,3.28
2022-11-30T04:30:05.986Z,4.88
2022-11-30T04:32:33.993Z,4.63
2022-11-30T04:35:02.035Z,5.93
2022-11-30T04:37:30.074Z,5.28
2022-11-30T04:39:58.090Z,4.53
2022-11-30T04:42:27.516Z,3.17
2022-11-30T04:44:55.552Z,5.55
2022-11-30T04:47:23.540Z,7.15
2022-11-30T04:49:51.647Z,6.57
2022-11-30T04:52:19.676Z,3.50
2022-11-30T04:54:47.856Z,6.35
2022-11-30T04:57:15.958Z,3.70
2022-11-30T04:59:45.371Z,5.80
2022-11-30T05:02:13.741Z,7.30
2022-11-30T05:04:41.825Z,7.70
2022-11-30T05:07:10.115Z,3.70
2022-11-30T05:09:38.151Z,5.90
2022-11-30T05:12:06.372Z,8.52
2022-11-30T05:14:34.438Z,4.05
2022-11-30T05:17:03.840Z,3.13
2022-11-30T05:19:32.936Z,5.65
2022-11-30T05:22:01.010Z,5.88
2022-11-30T05:24:29.035Z,4.60
2022-11-30T05:26:57.142Z,7.20
2022-11-30T05:29:25.338Z,4.55
2022-11-30T05:31:53.414Z,6.72
2022-11-30T05:34:22.874Z,7.97
2022-11-30T05:36:50.854Z,6.32
2022-11-30T05:39:18.870Z,3.22
2022-11-30T05:41:46.835Z,7.60
2022-11-30T05:44:15.064Z,5.15
2022-11-30T05:46:43.502Z,9.60
2022-11-30T05:49:11.525Z,5.18
2022-11-30T05:51:41.565Z,5.82
2022-11-30T05:54:09.801Z,8.65
2022-11-30T05:56:38.044Z,10.38
2022-11-30T05:59:06.182Z,10.38
2022-11-30T06:01:34.296Z,9.13
2022-11-30T06:04:08.856Z,9.88
2022-11-30T06:06:37.083Z,7.50
2022-11-30T06:09:06.505Z,5.97
2022-11-30T06:11:34.480Z,13.45
2022-11-30T06:14:02.556Z,8.38
2022-11-30T06:16:30.533Z,9.18
2022-11-30T06:18:58.734Z,7.63
2022-11-30T06:21:26.747Z,10.25
2022-11-30T06:23:54.747Z,6.03
2022-11-30T06:26:24.315Z,12.15
2022-11-30T06:28:52.322Z,8.65
2022-11-30T06:31:20.418Z,9.40
2022-11-30T06:33:48.475Z,7.68
2022-11-30T06:36:23.146Z,7.22
2022-11-30T06:38:51.717Z,7.35
2022-11-30T06:41:20.034Z,10.70
2022-11-30T06:43:49.399Z,7.80
2022-11-30T06:46:17.472Z,7.38
2022-11-30T06:48:49.381Z,8.00
2022-11-30T06:51:17.561Z,14.07
2022-11-30T06:53:46.356Z,6.25
2022-11-30T06:56:14.375Z,10.10
2022-11-30T06:58:42.994Z,7.63
2022-11-30T07:01:14.418Z,5.90
2022-11-30T07:03:43.415Z,6.13
2022-11-30T07:06:13.675Z,6.60
2022-11-30T07:08:42.210Z,9.75
2022-11-30T07:11:11.647Z,13.88
2022-11-30T07:13:40.157Z,8.90
2022-11-30T07:16:11.004Z,8.18
2022-11-30T07:18:40.527Z,5.97
2022-11-30T07:21:08.987Z,7.15
2022-11-30T07:23:56.981Z,7.93
2022-11-30T07:26:25.470Z,9.75
2022-11-30T07:28:58.107Z,24.98
2022-11-30T07:31:27.853Z,24.92
2022-11-30T07:33:58.497Z,23.40
2022-11-30T07:36:29.611Z,22.60
2022-11-30T07:38:57.661Z,24.70
2022-11-30T07:41:26.169Z,21.63
2022-11-30T07:43:54.134Z,28.70
2022-11-30T07:46:22.907Z,37.60
2022-11-30T07:48:50.994Z,28.70
2022-11-30T07:51:22.032Z,27.85
2022-11-30T07:53:50.618Z,30.80
2022-11-30T07:56:20.482Z,29.85
2022-11-30T07:58:49.040Z,24.73
2022-11-30T08:01:19.675Z,36.17
2022-11-30T08:03:47.949Z,26.38
2022-11-30T08:06:19.631Z,36.92
2022-11-30T08:08:50.641Z,34.35
2022-11-30T08:11:20.900Z,31.35
2022-11-30T08:13:49.052Z,29.77
2022-11-30T08:16:18.802Z,23.38
2022-11-30T08:18:47.558Z,27.58
2022-11-30T08:21:17.392Z,29.25
2022-11-30T08:23:46.775Z,27.00
2022-11-30T08:26:18.058Z,26.90
2022-11-30T08:28:47.374Z,30.42
2022-11-30T08:31:18.771Z,26.10
2022-11-30T08:33:47.434Z,30.20
2022-11-30T08:36:17.033Z,35.00
2022-11-30T08:38:46.162Z,29.25
2022-11-30T08:41:18.933Z,27.77
2022-11-30T08:43:47.293Z,28.00
2022-11-30T08:46:42.990Z,25.70
2022-11-30T08:49:21.574Z,25.90
2022-11-30T08:54:45.231Z,26.88
2022-11-30T08:57:17.355Z,21.48
2022-11-30T08:59:45.600Z,27.67
2022-11-30T09:02:17.266Z,25.98
2022-11-30T09:04:47.115Z,29.20
2022-11-30T09:07:15.355Z,32.72
2022-11-30T09:09:43.330Z,25.45
2022-11-30T09:12:13.200Z,27.00
2022-11-30T09:14:42.645Z,23.60
2022-11-30T09:17:10.673Z,17.48
2022-11-30T09:19:38.630Z,22.38
2022-11-30T09:22:06.670Z,28.73
2022-11-30T09:24:34.737Z,22.63
2022-11-30T09:27:02.774Z,23.90
2022-11-30T09:29:30.794Z,22.77
2022-11-30T09:32:00.237Z,18.63
2022-11-30T09:34:28.381Z,24.90
2022-11-30T09:36:56.457Z,18.93
2022-11-30T09:39:24.460Z,15.40
2022-11-30T09:42:27.242Z,18.70
2022-11-30T09:45:02.945Z,18.30
2022-11-30T09:47:45.727Z,16.17
2022-11-30T09:50:16.787Z,17.27
2022-11-30T09:52:47.870Z,19.23
2022-11-30T09:55:23.400Z,13.23
2022-11-30T09:57:54.880Z,14.40
2022-11-30T10:00:25.205Z,14.87
2022-11-30T10:02:58.270Z,14.40
2022-11-30T10:05:29.814Z,18.23
2022-11-30T10:08:26.571Z,12.90
2022-11-30T10:11:10.250Z,15.37
2022-11-30T10:13:52.323Z,12.30
2022-11-30T10:16:28.163Z,12.63
2022-11-30T10:19:05.655Z,12.43
2022-11-30T10:21:46.576Z,13.13
2022-11-30T10:24:27.516Z,9.10
2022-11-30T10:26:58.627Z,14.63
2022-11-30T10:29:32.952Z,11.50
2022-11-30T10:32:05.191Z,10.70
2022-11-30T10:34:36.938Z,13.87
2022-11-30T10:37:12.837Z,11.60
2022-11-30T10:39:47.572Z,13.10
2022-11-30T10:42:21.407Z,11.40
2022-11-30T10:44:59.108Z,13.50
2022-11-30T10:47:31.222Z,14.20
2022-11-30T10:50:01.062Z,9.90
2022-11-30T10:52:31.986Z,18.40
2022-11-30T10:55:04.540Z,16.27
2022-11-30T10:57:34.024Z,18.90
2022-11-30T11:00:06.545Z,11.97
2022-11-30T11:02:40.965Z,11.97
2022-11-30T11:05:29.387Z,12.40
2022-11-30T11:08:05.983Z,12.50
2022-11-30T11:10:36.700Z,7.87
2022-11-30T11:13:05.889Z,9.43
2022-11-30T11:15:35.185Z,9.80
2022-11-30T11:18:26.055Z,7.27
2022-11-30T11:21:06.778Z,8.43
2022-11-30T11:23:38.137Z,8.27
2022-11-30T11:26:08.110Z,7.07
2022-11-30T11:28:37.576Z,7.40
2022-11-30T11:31:19.502Z,6.03
2022-11-30T11:33:53.106Z,10.70
2022-11-30T11:36:27.721Z,7.80
2022-11-30T11:38:55.816Z,7.73
2022-11-30T11:41:27.776Z,8.50
2022-11-30T11:44:04.976Z,7.53
2022-11-30T11:46:34.620Z,10.93
2022-11-30T11:49:04.411Z,9.60
2022-11-30T11:51:35.531Z,7.70
2022-11-30T11:54:13.634Z,10.60
2022-11-30T11:56:42.218Z,10.37
2022-11-30T11:59:16.304Z,7.60
2022-11-30T12:01:56.333Z,6.90
2022-11-30T12:04:37.296Z,8.27
2022-11-30T12:07:18.466Z,8.10
2022-11-30T12:10:12.645Z,9.93
2022-11-30T12:12:54.657Z,8.93
2022-11-30T12:15:30.142Z,9.30
2022-11-30T12:18:14.227Z,9.50
2022-11-30T12:20:53.688Z,5.97
2022-11-30T12:23:43.215Z,7.80
2022-11-30T12:26:20.147Z,6.87
2022-11-30T12:29:01.505Z,9.87
2022-11-30T12:31:39.801Z,7.57
2022-11-30T12:34:17.156Z,5.60
2022-11-30T12:36:54.076Z,10.97
2022-11-30T12:39:33.526Z,11.60
2022-11-30T12:42:06.092Z,8.47
2022-11-30T12:44:45.789Z,9.10
2022-11-30T12:47:32.884Z,7.13
2022-11-30T12:50:13.553Z,10.10
2022-11-30T12:52:48.606Z,7.00
2022-11-30T12:55:29.725Z,9.63
2022-11-30T12:58:06.842Z,11.13
2022-11-30T13:00:46.846Z,6.30
2022-11-30T13:03:36.222Z,9.00
2022-11-30T13:06:10.203Z,8.97
2022-11-30T13:08:47.177Z,7.50
2022-11-30T13:11:19.782Z,7.57
2022-11-30T13:13:52.195Z,6.60
2022-11-30T13:16:22.262Z,7.67
2022-11-30T13:18:51.491Z,9.80
2022-11-30T13:21:27.419Z,8.67
2022-11-30T13:24:02.847Z,10.10
2022-11-30T13:26:40.002Z,10.27
2022-11-30T13:29:21.582Z,12.80
2022-11-30T13:31:55.042Z,13.20
2022-11-30T13:34:27.895Z,9.63
2022-11-30T13:37:04.793Z,10.90
2022-11-30T13:39:45.881Z,14.80
2022-11-30T13:42:39.131Z,12.00
2022-11-30T13:45:30.175Z,12.93
2022-11-30T13:47:59.250Z,20.10
2022-11-30T13:50:37.225Z,11.50
2022-11-30T13:53:25.581Z,20.43
2022-11-30T13:56:01.884Z,16.40
2022-11-30T13:58:31.946Z,17.43
2022-11-30T14:01:29.626Z,11.63
2022-11-30T14:04:23.746Z,14.40
2022-11-30T14:06:52.950Z,13.37
2022-11-30T14:10:09.051Z,18.43
2022-11-30T14:12:59.858Z,25.77
2022-11-30T14:15:51.426Z,19.77
2022-11-30T14:18:40.844Z,20.20
2022-11-30T14:21:25.391Z,16.88
2022-11-30T14:24:02.176Z,20.08
2022-11-30T14:26:36.255Z,17.80
2022-11-30T14:29:11.946Z,26.83
2022-11-30T14:31:52.600Z,20.02
2022-11-30T14:34:24.468Z,18.08
2022-11-30T14:36:56.493Z,21.80
2022-11-30T14:39:27.152Z,19.58
2022-11-30T14:41:55.204Z,18.25
2022-11-30T14:44:23.337Z,16.00
2022-11-30T14:46:52.800Z,18.73
2022-11-30T14:49:22.538Z,20.40
2022-11-30T14:51:53.666Z,39.00
2022-11-30T14:54:45.456Z,42.75
2022-11-30T14:57:20.417Z,30.05
2022-11-30T14:59:50.943Z,33.67
2022-11-30T15:02:30.177Z,33.65
2022-11-30T15:04:59.572Z,74.28
2022-11-30T15:07:30.016Z,28.38
2022-11-30T15:10:05.214Z,30.20
2022-11-30T15:12:34.155Z,22.63
2022-11-30T15:15:04.101Z,26.85
2022-11-30T15:17:33.716Z,28.60
2022-11-30T15:20:01.990Z,17.52
2022-11-30T15:22:35.556Z,25.27
2022-11-30T15:25:15.841Z,27.83
2022-11-30T15:27:44.195Z,27.73
2022-11-30T15:30:16.262Z,22.77
2022-11-30T15:32:52.791Z,20.83
2022-11-30T15:35:23.594Z,19.45
2022-11-30T15:37:52.045Z,21.00
2022-11-30T15:40:31.267Z,20.60
2022-11-30T15:43:00.168Z,20.48
2022-11-30T15:45:30.079Z,22.40
2022-11-30T15:48:00.696Z,21.33
2022-11-30T15:50:37.053Z,20.25
2022-11-30T15:53:26.667Z,19.90
2022-11-30T15:55:56.740Z,21.35
2022-11-30T15:58:34.324Z,24.63
2022-11-30T16:01:06.213Z,28.10
2022-11-30T16:03:38.008Z,20.80
2022-11-30T16:06:06.878Z,21.35
2022-11-30T16:08:34.864Z,27.75
2022-11-30T16:11:07.607Z,20.40
2022-11-30T16:13:36.214Z,29.15
2022-11-30T16:16:11.810Z,70.35
2022-11-30T16:18:41.405Z,51.60
2022-11-30T16:21:16.007Z,39.80
2022-11-30T16:23:44.872Z,30.42
2022-11-30T16:26:35.989Z,44.83
2022-11-30T16:29:04.417Z,34.55
2022-11-30T16:31:32.929Z,21.63
2022-11-30T16:34:02.536Z,23.23
2022-11-30T16:36:30.702Z,19.85
2022-11-30T16:38:58.711Z,21.25
2022-11-30T16:41:28.476Z,20.05
2022-11-30T16:43:57.966Z,18.50
2022-11-30T16:46:27.742Z,18.95
2022-11-30T16:48:56.127Z,23.35
2022-11-30T16:51:27.348Z,19.48
2022-11-30T16:53:55.760Z,27.65
2022-11-30T16:56:23.970Z,14.85
2022-11-30T16:58:52.290Z,20.48
2022-11-30T17:01:29.209Z,19.90
2022-11-30T17:04:02.056Z,25.63
2022-11-30T17:06:31.462Z,18.00
2022-11-30T17:08:59.463Z,21.40
2022-11-30T17:11:30.887Z,29.33
2022-11-30T17:13:58.935Z,23.63
2022-11-30T17:16:27.293Z,20.88
2022-11-30T17:18:55.364Z,17.70
2022-11-30T17:21:27.242Z,29.65
2022-11-30T17:23:56.667Z,23.45
2022-11-30T17:26:24.829Z,17.00
2022-11-30T17:28:52.977Z,26.65
2022-11-30T17:31:21.458Z,32.70
2022-11-30T17:33:49.808Z,31.73
2022-11-30T17:36:18.910Z,17.90
2022-11-30T17:38:46.963Z,25.80
2022-11-30T17:41:19.556Z,22.08
2022-11-30T17:43:48.267Z,16.85
2022-11-30T17:46:18.373Z,22.23
2022-11-30T17:48:47.172Z,19.73
2022-11-30T17:51:15.287Z,23.52
2022-11-30T17:53:44.289Z,25.00
2022-11-30T17:56:13.887Z,35.42
2022-11-30T17:58:45.210Z,35.40
2022-11-30T18:01:17.682Z,31.77
2022-11-30T18:03:46.139Z,34.55
2022-11-30T18:06:14.472Z,38.15
2022-11-30T18:08:42.556Z,28.92
2022-11-30T18:11:11.837Z,27.45
2022-11-30T18:13:43.813Z,25.30
2022-11-30T18:16:14.003Z,23.23
2022-11-30T18:18:47.389Z,29.15
2022-11-30T18:21:18.757Z,25.40
2022-11-30T18:23:46.921Z,24.73
2022-11-30T18:26:16.897Z,20.58
2022-11-30T18:28:46.976Z,21.60
2022-11-30T18:31:15.000Z,21.77
2022-11-30T18:33:43.109Z,25.23
2022-11-30T18:36:11.153Z,31.70
2022-11-30T18:38:41.459Z,23.90
2022-11-30T18:41:09.475Z,25.50
2022-11-30T18:43:39.326Z,26.48
2022-11-30T18:46:10.397Z,17.10
2022-11-30T18:48:39.649Z,18.55
2022-11-30T18:51:12.648Z,27.85
2022-11-30T18:53:41.005Z,27.42
2022-11-30T18:56:10.850Z,19.08
2022-11-30T18:58:38.900Z,25.55
2022-11-30T19:01:13.419Z,27.15
2022-11-30T19:03:42.057Z,25.35
2022-11-30T19:06:11.258Z,22.92
2022-11-30T19:08:41.052Z,21.15
2022-11-30T19:11:10.304Z,20.30
2022-11-30T19:13:38.497Z,20.33
2022-11-30T19:16:09.004Z,24.83
2022-11-30T19:18:39.211Z,22.25
2022-11-30T19:21:11.743Z,24.45
2022-11-30T19:23:40.512Z,36.95
2022-11-30T19:26:09.843Z,25.98
2022-11-30T19:28:39.323Z,39.42
2022-11-30T19:31:09.368Z,26.40
2022-11-30T19:33:40.367Z,35.28
2022-11-30T19:36:11.807Z,26.48
2022-11-30T19:38:39.934Z,28.58
2022-11-30T19:41:08.520Z,27.98
2022-11-30T19:43:36.879Z,28.05
2022-11-30T19:46:06.513Z,19.98
2022-11-30T19:48:35.027Z,27.52
2022-11-30T19:51:12.050Z,22.65
2022-11-30T19:53:42.411Z,24.88
2022-11-30T19:56:14.733Z,20.90
2022-11-30T19:58:43.803Z,32.22
2022-11-30T20:01:13.385Z,23.73
2022-11-30T20:03:41.593Z,24.25
2022-11-30T20:06:11.024Z,26.55
2022-11-30T20:08:39.119Z,19.95
2022-11-30T20:11:07.607Z,24.88
2022-11-30T20:13:35.689Z,23.55
2022-11-30T20:16:07.739Z,20.48
2022-11-30T20:18:37.507Z,20.60
2022-11-30T20:21:14.715Z,16.67
2022-11-30T20:23:43.589Z,19.00
2022-11-30T20:26:16.543Z,19.75
2022-11-30T20:28:44.890Z,20.70
2022-11-30T20:31:14.772Z,20.98
2022-11-30T20:33:43.854Z,19.52
2022-11-30T20:36:13.957Z,18.13
2022-11-30T20:38:42.120Z,19.17
2022-11-30T20:41:13.099Z,24.25
2022-11-30T20:43:41.385Z,16.90
2022-11-30T20:46:16.961Z,18.30
2022-11-30T20:48:45.147Z,16.00
2022-11-30T20:51:32.736Z,19.48
2022-11-30T20:54:02.468Z,13.60
2022-11-30T20:56:31.115Z,17.85
2022-11-30T20:59:02.773Z,22.98
2022-11-30T21:01:31.326Z,13.45
2022-11-30T21:04:00.553Z,21.83
2022-11-30T21:06:30.907Z,17.27
2022-11-30T21:08:59.437Z,16.67
2022-11-30T21:11:28.880Z,29.88
2022-11-30T21:13:58.472Z,21.45
2022-11-30T21:16:29.042Z,19.73
2022-11-30T21:18:58.896Z,29.70
2022-11-30T21:21:30.699Z,30.08
2022-11-30T21:24:00.526Z,23.38
2022-11-30T21:26:30.857Z,25.73
2022-11-30T21:29:02.057Z,26.30
2022-11-30T21:31:30.922Z,30.77
2022-11-30T21:33:59.009Z,30.08
2022-11-30T21:36:27.372Z,25.63
2022-11-30T21:39:04.433Z,21.80
2022-11-30T21:41:33.676Z,27.77
2022-11-30T21:44:01.757Z,18.90
2022-11-30T21:46:29.987Z,19.67
2022-11-30T21:48:58.373Z,22.55
2022-11-30T21:51:27.906Z,20.10
2022-11-30T21:53:58.815Z,23.98
2022-11-30T21:56:29.017Z,27.02
2022-11-30T21:58:57.637Z,16.02
2022-11-30T22:01:28.422Z,20.15
2022-11-30T22:03:56.857Z,21.83
2022-11-30T22:06:26.441Z,26.98
2022-11-30T22:08:56.642Z,22.58
2022-11-30T22:11:25.922Z,21.67
2022-11-30T22:13:55.023Z,25.98
2022-11-30T22:16:25.327Z,23.55
2022-11-30T22:18:55.585Z,24.55
2022-11-30T22:21:26.102Z,21.02
2022-11-30T22:23:55.790Z,25.25
2022-11-30T22:26:26.812Z,22.48
2022-11-30T22:28:57.039Z,25.88
2022-11-30T22:31:28.280Z,18.80
2022-11-30T22:33:57.359Z,22.38
2022-11-30T22:36:26.939Z,23.70
2022-11-30T22:38:56.049Z,22.70
2022-11-30T22:41:26.205Z,23.27
2022-11-30T22:43:56.254Z,25.02
2022-11-30T22:46:26.386Z,24.63
2022-11-30T22:48:54.979Z,17.75
2022-11-30T22:51:24.834Z,23.40
2022-11-30T22:53:53.717Z,29.40
2022-11-30T22:56:23.783Z,23.88
2022-11-30T22:58:55.135Z,23.98
2022-11-30T23:01:25.573Z,23.73
2022-11-30T23:03:57.235Z,22.08
2022-11-30T23:06:26.033Z,20.48
2022-11-30T23:08:54.673Z,23.33
2022-11-30T23:11:24.558Z,18.75
2022-11-30T23:13:54.268Z,27.75
2022-11-30T23:16:22.473Z,16.77
2022-11-30T23:18:53.986Z,18.92
2022-11-30T23:21:24.339Z,18.63
2022-11-30T23:23:52.786Z,19.50
2022-11-30T23:26:23.616Z,23.77
2022-11-30T23:28:54.655Z,16.75
2022-11-30T23:31:34.516Z,21.13
2022-11-30T23:34:05.112Z,21.25
2022-11-30T23:36:33.444Z,26.63
2022-11-30T23:39:03.218Z,19.85
2022-11-30T23:41:31.205Z,21.65
2022-11-30T23:44:00.919Z,19.05
2022-11-30T23:46:28.981Z,24.17
2022-11-30T23:48:57.187Z,21.20
2022-11-30T23:51:25.183Z,19.50
2022-11-30T23:53:53.461Z,15.18
2022-11-30T23:56:23.432Z,23.55
2022-11-30T23:58:51.498Z,21.25
